MMZO

Playa De Oro International Airport

Manzanillo, Mexico
TAF MMZO 171640Z 1718/1818 24010KT P6SM SCT250 FM180400 23005KT 6SM HZ SKC FM181800 23010KT P6SM SKC
Issued Valid From Valid To
Nov-17 @ 16:40 UTC
(5 hours ago)
Nov-17 @ 18:00 UTC
(4 hours ago)
Nov-18 @ 18:00 UTC
(in 20 hours)
Nov-17 @ 18:00 to Nov-18 @ 04:00
TAF MMZO 171640Z 1718/1818 24010KT P6SM SCT250
Wind Visibility Clouds
240° at 10 knots Greater than 6 miles
  • Scattered at 25,000' AGL
From Nov-18 @ 04:00 to Nov-18 @ 18:00
FM180400 23005KT 6SM HZ SKC
Wind Visibility Clouds Conditions
230° at 5 knots 6 miles
  • Clear skies
  • Haze
From Nov-18 @ 18:00 to Nov-18 @ 18:00
FM181800 23010KT P6SM SKC
Wind Visibility Clouds
230° at 10 knots Greater than 6 miles
  • Clear skies
TAF MMZO 171640Z 1718/1818 24010KT P6SM SCT250 FM180400 23005KT 6SM HZ SKC FM181800 23010KT P6SM SKC
Issued Nov-17 @ 16:40 UTC
(5 hours ago)
Valid From Nov-17 @ 18:00 UTC
(4 hours ago)
Valid To Nov-18 @ 18:00 UTC
(in 20 hours)
Nov-17 @ 18:00 - Nov-18 @ 04:00
Wind Visibility
240° at 10 knots Greater than 6 miles
Clouds
  • Scattered at 25,000' AGL
From Nov-18 @ 04:00 - Nov-18 @ 18:00
Wind Visibility
230° at 5 knots 6 miles
Clouds
  • Clear skies
Conditions
  • Haze
From Nov-18 @ 18:00 - Nov-18 @ 18:00
Wind Visibility
230° at 10 knots Greater than 6 miles
Clouds
  • Clear skies